sensor_id;sensor_type;location;lat;lon;timestamp;P1;durP1;ratioP1;P2;durP2;ratioP2
75289;SDS011;63883;48.996;20.804;2023-09-30T00:00:17;13.80;;;7.40;;
75289;SDS011;63883;48.996;20.804;2023-09-30T00:03:03;12.10;;;7.75;;
75289;SDS011;63883;48.996;20.804;2023-09-30T00:05:28;12.75;;;8.02;;
75289;SDS011;63883;48.996;20.804;2023-09-30T00:07:54;14.30;;;7.65;;
75289;SDS011;63883;48.996;20.804;2023-09-30T00:10:20;10.95;;;7.35;;
75289;SDS011;63883;48.996;20.804;2023-09-30T00:12:45;13.90;;;7.00;;
75289;SDS011;63883;48.996;20.804;2023-09-30T00:15:11;14.25;;;7.65;;
75289;SDS011;63883;48.996;20.804;2023-09-30T00:17:37;12.80;;;7.65;;
75289;SDS011;63883;48.996;20.804;2023-09-30T00:20:03;12.27;;;7.53;;
75289;SDS011;63883;48.996;20.804;2023-09-30T00:22:30;12.82;;;7.90;;
75289;SDS011;63883;48.996;20.804;2023-09-30T00:24:55;13.57;;;8.23;;
75289;SDS011;63883;48.996;20.804;2023-09-30T00:27:21;13.93;;;7.38;;
75289;SDS011;63883;48.996;20.804;2023-09-30T00:29:47;11.82;;;7.10;;
75289;SDS011;63883;48.996;20.804;2023-09-30T00:32:13;13.25;;;7.72;;
75289;SDS011;63883;48.996;20.804;2023-09-30T00:34:38;13.23;;;7.75;;
75289;SDS011;63883;48.996;20.804;2023-09-30T00:37:05;12.85;;;8.23;;
75289;SDS011;63883;48.996;20.804;2023-09-30T00:39:32;11.95;;;7.47;;
75289;SDS011;63883;48.996;20.804;2023-09-30T00:41:58;12.27;;;7.97;;
75289;SDS011;63883;48.996;20.804;2023-09-30T00:44:27;14.07;;;7.82;;
75289;SDS011;63883;48.996;20.804;2023-09-30T00:46:53;11.55;;;7.55;;
75289;SDS011;63883;48.996;20.804;2023-09-30T00:49:21;14.75;;;7.97;;
75289;SDS011;63883;48.996;20.804;2023-09-30T00:51:48;11.93;;;7.82;;
75289;SDS011;63883;48.996;20.804;2023-09-30T00:54:14;12.55;;;7.80;;
75289;SDS011;63883;48.996;20.804;2023-09-30T00:56:45;13.35;;;7.53;;
75289;SDS011;63883;48.996;20.804;2023-09-30T00:59:13;12.90;;;7.53;;
75289;SDS011;63883;48.996;20.804;2023-09-30T01:01:40;12.73;;;7.80;;
75289;SDS011;63883;48.996;20.804;2023-09-30T01:04:13;13.43;;;7.65;;
75289;SDS011;63883;48.996;20.804;2023-09-30T01:06:40;12.23;;;7.13;;
75289;SDS011;63883;48.996;20.804;2023-09-30T01:09:06;12.93;;;7.53;;
75289;SDS011;63883;48.996;20.804;2023-09-30T01:11:33;13.15;;;8.20;;
75289;SDS011;63883;48.996;20.804;2023-09-30T01:13:58;13.23;;;7.97;;
75289;SDS011;63883;48.996;20.804;2023-09-30T01:16:24;12.85;;;7.47;;
75289;SDS011;63883;48.996;20.804;2023-09-30T01:18:50;11.48;;;7.45;;
75289;SDS011;63883;48.996;20.804;2023-09-30T01:21:16;13.68;;;7.43;;
75289;SDS011;63883;48.996;20.804;2023-09-30T01:23:43;12.88;;;7.43;;
75289;SDS011;63883;48.996;20.804;2023-09-30T01:26:11;13.38;;;8.13;;
75289;SDS011;63883;48.996;20.804;2023-09-30T01:28:38;13.23;;;7.60;;
75289;SDS011;63883;48.996;20.804;2023-09-30T01:31:05;13.65;;;7.43;;
75289;SDS011;63883;48.996;20.804;2023-09-30T01:33:31;11.27;;;7.20;;
75289;SDS011;63883;48.996;20.804;2023-09-30T01:35:58;12.07;;;7.55;;
75289;SDS011;63883;48.996;20.804;2023-09-30T01:38:27;13.07;;;7.40;;
75289;SDS011;63883;48.996;20.804;2023-09-30T01:40:53;12.50;;;7.38;;
75289;SDS011;63883;48.996;20.804;2023-09-30T01:43:19;12.20;;;7.72;;
75289;SDS011;63883;48.996;20.804;2023-09-30T01:45:45;12.45;;;7.50;;
75289;SDS011;63883;48.996;20.804;2023-09-30T01:48:11;11.48;;;7.10;;
75289;SDS011;63883;48.996;20.804;2023-09-30T01:50:37;14.20;;;7.40;;
75289;SDS011;63883;48.996;20.804;2023-09-30T01:53:06;14.02;;;8.25;;
75289;SDS011;63883;48.996;20.804;2023-09-30T01:55:32;15.20;;;7.70;;
75289;SDS011;63883;48.996;20.804;2023-09-30T01:57:59;15.50;;;8.30;;
75289;SDS011;63883;48.996;20.804;2023-09-30T02:00:25;11.40;;;7.30;;
75289;SDS011;63883;48.996;20.804;2023-09-30T02:02:53;14.05;;;7.50;;
75289;SDS011;63883;48.996;20.804;2023-09-30T02:05:22;14.60;;;7.72;;
75289;SDS011;63883;48.996;20.804;2023-09-30T02:07:49;15.07;;;7.93;;
75289;SDS011;63883;48.996;20.804;2023-09-30T02:10:16;14.43;;;7.78;;
75289;SDS011;63883;48.996;20.804;2023-09-30T02:12:44;14.25;;;8.63;;
75289;SDS011;63883;48.996;20.804;2023-09-30T02:15:11;14.30;;;7.95;;
75289;SDS011;63883;48.996;20.804;2023-09-30T02:17:37;13.90;;;7.93;;
75289;SDS011;63883;48.996;20.804;2023-09-30T02:20:03;13.55;;;7.88;;
75289;SDS011;63883;48.996;20.804;2023-09-30T02:22:32;14.18;;;8.43;;
75289;SDS011;63883;48.996;20.804;2023-09-30T02:24:58;12.60;;;7.38;;
75289;SDS011;63883;48.996;20.804;2023-09-30T02:27:24;13.77;;;7.95;;
75289;SDS011;63883;48.996;20.804;2023-09-30T02:29:50;12.70;;;7.65;;
75289;SDS011;63883;48.996;20.804;2023-09-30T02:32:16;12.80;;;7.32;;
75289;SDS011;63883;48.996;20.804;2023-09-30T02:34:42;20.65;;;8.32;;
75289;SDS011;63883;48.996;20.804;2023-09-30T02:37:09;19.40;;;8.30;;
75289;SDS011;63883;48.996;20.804;2023-09-30T02:39:36;28.92;;;9.65;;
75289;SDS011;63883;48.996;20.804;2023-09-30T02:42:02;22.63;;;9.50;;
75289;SDS011;63883;48.996;20.804;2023-09-30T02:44:28;26.63;;;9.65;;
75289;SDS011;63883;48.996;20.804;2023-09-30T02:46:53;25.42;;;9.57;;
75289;SDS011;63883;48.996;20.804;2023-09-30T02:49:20;25.92;;;9.50;;
75289;SDS011;63883;48.996;20.804;2023-09-30T02:51:47;21.05;;;9.65;;
75289;SDS011;63883;48.996;20.804;2023-09-30T02:54:12;23.90;;;10.27;;
75289;SDS011;63883;48.996;20.804;2023-09-30T02:56:40;30.38;;;9.98;;
75289;SDS011;63883;48.996;20.804;2023-09-30T02:59:06;26.20;;;10.15;;
75289;SDS011;63883;48.996;20.804;2023-09-30T03:01:33;29.75;;;9.80;;
75289;SDS011;63883;48.996;20.804;2023-09-30T03:03:59;28.88;;;10.45;;
75289;SDS011;63883;48.996;20.804;2023-09-30T03:06:24;27.90;;;10.57;;
75289;SDS011;63883;48.996;20.804;2023-09-30T03:08:50;32.42;;;10.82;;
75289;SDS011;63883;48.996;20.804;2023-09-30T03:11:17;25.15;;;10.52;;
75289;SDS011;63883;48.996;20.804;2023-09-30T03:13:45;17.42;;;10.40;;
75289;SDS011;63883;48.996;20.804;2023-09-30T03:16:11;17.63;;;10.38;;
75289;SDS011;63883;48.996;20.804;2023-09-30T03:18:37;18.80;;;10.13;;
75289;SDS011;63883;48.996;20.804;2023-09-30T03:21:03;17.90;;;9.68;;
75289;SDS011;63883;48.996;20.804;2023-09-30T03:23:38;17.88;;;9.35;;
75289;SDS011;63883;48.996;20.804;2023-09-30T03:26:05;18.45;;;9.68;;
75289;SDS011;63883;48.996;20.804;2023-09-30T03:28:38;22.25;;;9.90;;
75289;SDS011;63883;48.996;20.804;2023-09-30T03:31:05;27.58;;;10.23;;
75289;SDS011;63883;48.996;20.804;2023-09-30T03:33:34;28.85;;;10.93;;
75289;SDS011;63883;48.996;20.804;2023-09-30T03:36:00;25.40;;;10.35;;
75289;SDS011;63883;48.996;20.804;2023-09-30T03:38:28;63.83;;;12.90;;
75289;SDS011;63883;48.996;20.804;2023-09-30T03:40:54;25.33;;;10.27;;
75289;SDS011;63883;48.996;20.804;2023-09-30T03:43:22;37.80;;;11.25;;
75289;SDS011;63883;48.996;20.804;2023-09-30T03:45:48;51.63;;;12.43;;
75289;SDS011;63883;48.996;20.804;2023-09-30T03:48:15;39.25;;;12.10;;
75289;SDS011;63883;48.996;20.804;2023-09-30T03:50:42;38.85;;;11.57;;
75289;SDS011;63883;48.996;20.804;2023-09-30T03:53:08;35.95;;;10.75;;
75289;SDS011;63883;48.996;20.804;2023-09-30T03:55:34;44.03;;;10.88;;
75289;SDS011;63883;48.996;20.804;2023-09-30T03:57:59;35.67;;;11.52;;
75289;SDS011;63883;48.996;20.804;2023-09-30T04:00:25;34.25;;;10.95;;
75289;SDS011;63883;48.996;20.804;2023-09-30T04:02:51;32.10;;;11.25;;
75289;SDS011;63883;48.996;20.804;2023-09-30T04:05:24;61.78;;;12.25;;
75289;SDS011;63883;48.996;20.804;2023-09-30T04:07:54;41.58;;;11.07;;
75289;SDS011;63883;48.996;20.804;2023-09-30T04:10:23;37.20;;;10.80;;
75289;SDS011;63883;48.996;20.804;2023-09-30T04:12:49;39.03;;;10.90;;
75289;SDS011;63883;48.996;20.804;2023-09-30T04:15:15;39.03;;;11.30;;
75289;SDS011;63883;48.996;20.804;2023-09-30T04:17:41;30.70;;;10.90;;
75289;SDS011;63883;48.996;20.804;2023-09-30T04:20:07;22.80;;;9.90;;
75289;SDS011;63883;48.996;20.804;2023-09-30T04:22:35;24.42;;;9.90;;
75289;SDS011;63883;48.996;20.804;2023-09-30T04:25:02;24.05;;;10.50;;
75289;SDS011;63883;48.996;20.804;2023-09-30T04:27:33;23.48;;;9.77;;
75289;SDS011;63883;48.996;20.804;2023-09-30T04:29:59;26.25;;;10.35;;
75289;SDS011;63883;48.996;20.804;2023-09-30T04:32:25;21.88;;;10.88;;
75289;SDS011;63883;48.996;20.804;2023-09-30T04:34:53;20.17;;;10.40;;
75289;SDS011;63883;48.996;20.804;2023-09-30T04:37:18;23.52;;;10.45;;
75289;SDS011;63883;48.996;20.804;2023-09-30T04:39:44;29.38;;;10.88;;
75289;SDS011;63883;48.996;20.804;2023-09-30T04:42:10;21.90;;;10.43;;
75289;SDS011;63883;48.996;20.804;2023-09-30T04:44:37;22.80;;;9.98;;
75289;SDS011;63883;48.996;20.804;2023-09-30T04:47:04;23.35;;;10.20;;
75289;SDS011;63883;48.996;20.804;2023-09-30T04:49:30;26.27;;;10.13;;
75289;SDS011;63883;48.996;20.804;2023-09-30T04:51:56;47.28;;;11.52;;
75289;SDS011;63883;48.996;20.804;2023-09-30T04:54:22;42.60;;;10.68;;
75289;SDS011;63883;48.996;20.804;2023-09-30T04:56:47;42.03;;;10.88;;
75289;SDS011;63883;48.996;20.804;2023-09-30T04:59:13;46.65;;;11.20;;
75289;SDS011;63883;48.996;20.804;2023-09-30T05:01:39;37.20;;;10.85;;
75289;SDS011;63883;48.996;20.804;2023-09-30T05:04:05;55.08;;;11.30;;
75289;SDS011;63883;48.996;20.804;2023-09-30T05:06:30;45.67;;;10.95;;
75289;SDS011;63883;48.996;20.804;2023-09-30T05:08:58;54.47;;;11.32;;
75289;SDS011;63883;48.996;20.804;2023-09-30T05:11:24;51.85;;;10.63;;
75289;SDS011;63883;48.996;20.804;2023-09-30T05:13:50;37.25;;;11.15;;
75289;SDS011;63883;48.996;20.804;2023-09-30T05:16:16;48.10;;;10.05;;
75289;SDS011;63883;48.996;20.804;2023-09-30T05:18:43;34.45;;;10.95;;
75289;SDS011;63883;48.996;20.804;2023-09-30T05:21:09;37.42;;;10.27;;
75289;SDS011;63883;48.996;20.804;2023-09-30T05:23:36;55.35;;;12.02;;
75289;SDS011;63883;48.996;20.804;2023-09-30T05:26:02;26.80;;;9.52;;
75289;SDS011;63883;48.996;20.804;2023-09-30T05:28:28;26.00;;;10.13;;
75289;SDS011;63883;48.996;20.804;2023-09-30T05:30:54;24.08;;;9.00;;
75289;SDS011;63883;48.996;20.804;2023-09-30T05:33:19;30.83;;;10.05;;
75289;SDS011;63883;48.996;20.804;2023-09-30T05:35:47;24.23;;;10.35;;
75289;SDS011;63883;48.996;20.804;2023-09-30T05:38:13;15.35;;;9.15;;
75289;SDS011;63883;48.996;20.804;2023-09-30T05:40:39;22.40;;;10.65;;
75289;SDS011;63883;48.996;20.804;2023-09-30T05:43:05;25.77;;;10.68;;
75289;SDS011;63883;48.996;20.804;2023-09-30T05:45:31;17.85;;;10.60;;
75289;SDS011;63883;48.996;20.804;2023-09-30T05:48:01;18.30;;;9.95;;
75289;SDS011;63883;48.996;20.804;2023-09-30T05:50:31;21.50;;;10.82;;
75289;SDS011;63883;48.996;20.804;2023-09-30T05:52:59;19.55;;;10.48;;
75289;SDS011;63883;48.996;20.804;2023-09-30T05:55:25;19.33;;;10.52;;
75289;SDS011;63883;48.996;20.804;2023-09-30T05:57:51;17.27;;;9.55;;
75289;SDS011;63883;48.996;20.804;2023-09-30T06:00:18;21.30;;;10.00;;
75289;SDS011;63883;48.996;20.804;2023-09-30T06:03:02;16.83;;;10.07;;
75289;SDS011;63883;48.996;20.804;2023-09-30T06:05:30;16.77;;;9.93;;
75289;SDS011;63883;48.996;20.804;2023-09-30T06:07:56;23.83;;;8.48;;
75289;SDS011;63883;48.996;20.804;2023-09-30T06:10:22;17.55;;;8.20;;
75289;SDS011;63883;48.996;20.804;2023-09-30T06:12:50;17.17;;;10.02;;
75289;SDS011;63883;48.996;20.804;2023-09-30T06:15:20;40.00;;;8.95;;
75289;SDS011;63883;48.996;20.804;2023-09-30T06:17:49;14.07;;;9.07;;
75289;SDS011;63883;48.996;20.804;2023-09-30T06:20:15;17.25;;;12.07;;
75289;SDS011;63883;48.996;20.804;2023-09-30T06:22:44;14.02;;;10.05;;
75289;SDS011;63883;48.996;20.804;2023-09-30T06:25:11;10.85;;;7.72;;
75289;SDS011;63883;48.996;20.804;2023-09-30T06:27:38;23.90;;;17.50;;
75289;SDS011;63883;48.996;20.804;2023-09-30T06:30:04;10.50;;;7.50;;
75289;SDS011;63883;48.996;20.804;2023-09-30T06:32:30;11.50;;;7.65;;
75289;SDS011;63883;48.996;20.804;2023-09-30T06:34:56;14.30;;;8.70;;
75289;SDS011;63883;48.996;20.804;2023-09-30T06:37:22;12.48;;;8.50;;
75289;SDS011;63883;48.996;20.804;2023-09-30T06:39:47;11.07;;;8.13;;
75289;SDS011;63883;48.996;20.804;2023-09-30T06:42:13;11.32;;;7.90;;
75289;SDS011;63883;48.996;20.804;2023-09-30T06:44:39;11.07;;;7.80;;
75289;SDS011;63883;48.996;20.804;2023-09-30T06:47:05;15.00;;;7.75;;
75289;SDS011;63883;48.996;20.804;2023-09-30T06:49:33;13.05;;;9.48;;
75289;SDS011;63883;48.996;20.804;2023-09-30T06:51:59;11.93;;;7.78;;
75289;SDS011;63883;48.996;20.804;2023-09-30T06:54:26;10.90;;;7.60;;
75289;SDS011;63883;48.996;20.804;2023-09-30T06:56:51;11.60;;;7.90;;
75289;SDS011;63883;48.996;20.804;2023-09-30T06:59:17;11.52;;;7.95;;
75289;SDS011;63883;48.996;20.804;2023-09-30T07:01:43;10.88;;;8.10;;
75289;SDS011;63883;48.996;20.804;2023-09-30T07:04:09;12.57;;;8.35;;
75289;SDS011;63883;48.996;20.804;2023-09-30T07:06:37;12.68;;;8.30;;
75289;SDS011;63883;48.996;20.804;2023-09-30T07:09:02;13.75;;;8.40;;
75289;SDS011;63883;48.996;20.804;2023-09-30T07:11:29;11.68;;;8.00;;
75289;SDS011;63883;48.996;20.804;2023-09-30T07:13:59;12.18;;;8.15;;
75289;SDS011;63883;48.996;20.804;2023-09-30T07:16:24;12.43;;;8.05;;
75289;SDS011;63883;48.996;20.804;2023-09-30T07:18:50;11.98;;;7.95;;
75289;SDS011;63883;48.996;20.804;2023-09-30T07:21:16;11.35;;;8.43;;
75289;SDS011;63883;48.996;20.804;2023-09-30T07:23:42;11.90;;;8.18;;
75289;SDS011;63883;48.996;20.804;2023-09-30T07:26:08;12.27;;;8.80;;
75289;SDS011;63883;48.996;20.804;2023-09-30T07:28:34;13.10;;;8.50;;
75289;SDS011;63883;48.996;20.804;2023-09-30T07:31:00;12.77;;;8.70;;
75289;SDS011;63883;48.996;20.804;2023-09-30T07:33:25;11.35;;;8.27;;
75289;SDS011;63883;48.996;20.804;2023-09-30T07:35:51;13.90;;;9.38;;
75289;SDS011;63883;48.996;20.804;2023-09-30T07:38:17;13.20;;;8.32;;
75289;SDS011;63883;48.996;20.804;2023-09-30T07:40:43;12.52;;;8.73;;
75289;SDS011;63883;48.996;20.804;2023-09-30T07:43:09;11.77;;;8.73;;
75289;SDS011;63883;48.996;20.804;2023-09-30T07:45:37;12.07;;;9.07;;
75289;SDS011;63883;48.996;20.804;2023-09-30T07:48:03;12.45;;;8.80;;
75289;SDS011;63883;48.996;20.804;2023-09-30T07:50:30;24.02;;;11.73;;
75289;SDS011;63883;48.996;20.804;2023-09-30T07:52:56;15.98;;;10.27;;
75289;SDS011;63883;48.996;20.804;2023-09-30T07:55:24;16.42;;;10.63;;
75289;SDS011;63883;48.996;20.804;2023-09-30T07:57:49;14.05;;;9.25;;
75289;SDS011;63883;48.996;20.804;2023-09-30T08:00:15;12.90;;;8.70;;
75289;SDS011;63883;48.996;20.804;2023-09-30T08:02:42;14.93;;;8.93;;
75289;SDS011;63883;48.996;20.804;2023-09-30T08:05:09;14.75;;;9.90;;
75289;SDS011;63883;48.996;20.804;2023-09-30T08:07:35;15.23;;;9.30;;
75289;SDS011;63883;48.996;20.804;2023-09-30T08:10:02;17.67;;;10.85;;
75289;SDS011;63883;48.996;20.804;2023-09-30T08:12:32;15.38;;;10.23;;
75289;SDS011;63883;48.996;20.804;2023-09-30T08:14:58;13.65;;;10.05;;
75289;SDS011;63883;48.996;20.804;2023-09-30T08:17:24;16.83;;;11.27;;
75289;SDS011;63883;48.996;20.804;2023-09-30T08:19:49;16.45;;;10.60;;
75289;SDS011;63883;48.996;20.804;2023-09-30T08:22:15;22.55;;;15.30;;
75289;SDS011;63883;48.996;20.804;2023-09-30T08:24:41;18.30;;;12.52;;
75289;SDS011;63883;48.996;20.804;2023-09-30T08:27:06;21.58;;;14.70;;
75289;SDS011;63883;48.996;20.804;2023-09-30T08:29:33;21.25;;;13.10;;
75289;SDS011;63883;48.996;20.804;2023-09-30T08:32:01;18.75;;;13.05;;
75289;SDS011;63883;48.996;20.804;2023-09-30T08:34:28;20.17;;;12.23;;
75289;SDS011;63883;48.996;20.804;2023-09-30T08:36:54;18.13;;;12.93;;
75289;SDS011;63883;48.996;20.804;2023-09-30T08:39:20;16.13;;;11.40;;
75289;SDS011;63883;48.996;20.804;2023-09-30T08:41:46;18.25;;;12.00;;
75289;SDS011;63883;48.996;20.804;2023-09-30T08:44:12;15.95;;;10.75;;
75289;SDS011;63883;48.996;20.804;2023-09-30T08:46:38;16.60;;;11.32;;
75289;SDS011;63883;48.996;20.804;2023-09-30T08:49:05;11.52;;;8.40;;
75289;SDS011;63883;48.996;20.804;2023-09-30T08:51:34;12.80;;;8.25;;
75289;SDS011;63883;48.996;20.804;2023-09-30T08:56:30;11.18;;;8.05;;
75289;SDS011;63883;48.996;20.804;2023-09-30T08:59:00;13.38;;;8.05;;
75289;SDS011;63883;48.996;20.804;2023-09-30T09:01:28;11.82;;;7.75;;
75289;SDS011;63883;48.996;20.804;2023-09-30T09:03:55;10.00;;;7.35;;
75289;SDS011;63883;48.996;20.804;2023-09-30T09:06:22;10.68;;;8.13;;
75289;SDS011;63883;48.996;20.804;2023-09-30T09:08:49;10.95;;;7.40;;
75289;SDS011;63883;48.996;20.804;2023-09-30T09:11:16;10.15;;;7.82;;
75289;SDS011;63883;48.996;20.804;2023-09-30T09:13:49;12.00;;;7.60;;
75289;SDS011;63883;48.996;20.804;2023-09-30T09:16:18;11.63;;;8.00;;
75289;SDS011;63883;48.996;20.804;2023-09-30T09:18:44;10.15;;;8.15;;
75289;SDS011;63883;48.996;20.804;2023-09-30T09:21:17;9.77;;;7.70;;
75289;SDS011;63883;48.996;20.804;2023-09-30T09:23:45;10.02;;;7.50;;
75289;SDS011;63883;48.996;20.804;2023-09-30T09:26:13;11.70;;;7.95;;
75289;SDS011;63883;48.996;20.804;2023-09-30T09:28:49;11.93;;;8.52;;
75289;SDS011;63883;48.996;20.804;2023-09-30T09:33:51;11.60;;;8.82;;
75289;SDS011;63883;48.996;20.804;2023-09-30T09:36:17;10.65;;;8.07;;
75289;SDS011;63883;48.996;20.804;2023-09-30T09:38:48;10.10;;;7.93;;
75289;SDS011;63883;48.996;20.804;2023-09-30T09:41:18;9.85;;;7.20;;
75289;SDS011;63883;48.996;20.804;2023-09-30T09:43:44;12.23;;;8.00;;
75289;SDS011;63883;48.996;20.804;2023-09-30T09:46:13;10.63;;;7.47;;
75289;SDS011;63883;48.996;20.804;2023-09-30T09:48:39;9.45;;;7.28;;
75289;SDS011;63883;48.996;20.804;2023-09-30T09:51:05;15.75;;;7.85;;
75289;SDS011;63883;48.996;20.804;2023-09-30T09:53:36;15.52;;;7.72;;
75289;SDS011;63883;48.996;20.804;2023-09-30T09:56:04;9.43;;;7.03;;
75289;SDS011;63883;48.996;20.804;2023-09-30T09:58:35;9.73;;;6.78;;
75289;SDS011;63883;48.996;20.804;2023-09-30T10:01:05;8.70;;;6.78;;
75289;SDS011;63883;48.996;20.804;2023-09-30T10:03:31;9.50;;;6.78;;
75289;SDS011;63883;48.996;20.804;2023-09-30T10:05:58;9.35;;;6.82;;
75289;SDS011;63883;48.996;20.804;2023-09-30T10:08:30;8.25;;;6.75;;
75289;SDS011;63883;48.996;20.804;2023-09-30T10:11:07;9.40;;;6.70;;
75289;SDS011;63883;48.996;20.804;2023-09-30T10:13:53;10.05;;;7.32;;
75289;SDS011;63883;48.996;20.804;2023-09-30T10:19:11;8.80;;;7.13;;
75289;SDS011;63883;48.996;20.804;2023-09-30T10:24:48;9.07;;;6.70;;
75289;SDS011;63883;48.996;20.804;2023-09-30T10:29:47;7.93;;;7.00;;
75289;SDS011;63883;48.996;20.804;2023-09-30T10:32:13;11.52;;;7.03;;
75289;SDS011;63883;48.996;20.804;2023-09-30T10:34:46;10.30;;;7.88;;
75289;SDS011;63883;48.996;20.804;2023-09-30T10:37:23;8.90;;;7.28;;
75289;SDS011;63883;48.996;20.804;2023-09-30T10:50:56;9.35;;;6.95;;
75289;SDS011;63883;48.996;20.804;2023-09-30T10:53:25;8.32;;;6.75;;
75289;SDS011;63883;48.996;20.804;2023-09-30T10:55:56;9.60;;;6.93;;
75289;SDS011;63883;48.996;20.804;2023-09-30T10:58:39;9.93;;;7.13;;
75289;SDS011;63883;48.996;20.804;2023-09-30T11:01:05;8.77;;;6.95;;
75289;SDS011;63883;48.996;20.804;2023-09-30T11:03:31;13.55;;;8.38;;
75289;SDS011;63883;48.996;20.804;2023-09-30T11:05:57;15.15;;;10.48;;
75289;SDS011;63883;48.996;20.804;2023-09-30T11:08:22;8.43;;;6.78;;
75289;SDS011;63883;48.996;20.804;2023-09-30T11:10:50;11.75;;;7.18;;
75289;SDS011;63883;48.996;20.804;2023-09-30T11:13:19;11.18;;;7.63;;
75289;SDS011;63883;48.996;20.804;2023-09-30T11:15:46;9.50;;;6.57;;
75289;SDS011;63883;48.996;20.804;2023-09-30T11:18:16;9.10;;;6.60;;
75289;SDS011;63883;48.996;20.804;2023-09-30T11:20:43;12.57;;;7.82;;
75289;SDS011;63883;48.996;20.804;2023-09-30T11:23:10;12.43;;;8.07;;
75289;SDS011;63883;48.996;20.804;2023-09-30T11:25:37;12.48;;;7.57;;
75289;SDS011;63883;48.996;20.804;2023-09-30T11:28:17;11.90;;;7.32;;
75289;SDS011;63883;48.996;20.804;2023-09-30T11:33:19;11.10;;;7.00;;
75289;SDS011;63883;48.996;20.804;2023-09-30T11:38:29;10.70;;;7.28;;
75289;SDS011;63883;48.996;20.804;2023-09-30T11:41:02;10.02;;;7.03;;
75289;SDS011;63883;48.996;20.804;2023-09-30T11:43:32;10.48;;;7.28;;
75289;SDS011;63883;48.996;20.804;2023-09-30T11:46:09;10.02;;;7.72;;
75289;SDS011;63883;48.996;20.804;2023-09-30T11:48:40;10.60;;;7.47;;
75289;SDS011;63883;48.996;20.804;2023-09-30T11:51:21;9.73;;;7.63;;
75289;SDS011;63883;48.996;20.804;2023-09-30T11:53:52;10.55;;;7.07;;
75289;SDS011;63883;48.996;20.804;2023-09-30T11:56:23;8.55;;;7.13;;
75289;SDS011;63883;48.996;20.804;2023-09-30T11:58:54;9.52;;;7.32;;
75289;SDS011;63883;48.996;20.804;2023-09-30T12:01:21;10.23;;;7.28;;
75289;SDS011;63883;48.996;20.804;2023-09-30T12:03:47;10.43;;;7.32;;
75289;SDS011;63883;48.996;20.804;2023-09-30T12:06:14;8.45;;;7.20;;
75289;SDS011;63883;48.996;20.804;2023-09-30T12:08:41;12.07;;;7.45;;
75289;SDS011;63883;48.996;20.804;2023-09-30T12:11:08;9.10;;;6.85;;
75289;SDS011;63883;48.996;20.804;2023-09-30T12:13:33;11.38;;;7.82;;
75289;SDS011;63883;48.996;20.804;2023-09-30T12:16:00;9.35;;;7.38;;
75289;SDS011;63883;48.996;20.804;2023-09-30T12:18:25;10.70;;;7.70;;
75289;SDS011;63883;48.996;20.804;2023-09-30T12:20:52;13.77;;;8.18;;
75289;SDS011;63883;48.996;20.804;2023-09-30T12:23:18;10.00;;;7.70;;
75289;SDS011;63883;48.996;20.804;2023-09-30T12:25:48;10.13;;;7.75;;
75289;SDS011;63883;48.996;20.804;2023-09-30T12:28:14;10.55;;;8.13;;
75289;SDS011;63883;48.996;20.804;2023-09-30T12:30:40;10.23;;;7.68;;
75289;SDS011;63883;48.996;20.804;2023-09-30T12:33:07;12.50;;;7.88;;
75289;SDS011;63883;48.996;20.804;2023-09-30T12:35:33;11.63;;;8.07;;
75289;SDS011;63883;48.996;20.804;2023-09-30T12:37:59;11.82;;;7.82;;
75289;SDS011;63883;48.996;20.804;2023-09-30T12:40:25;9.70;;;7.68;;
75289;SDS011;63883;48.996;20.804;2023-09-30T12:42:50;10.35;;;8.30;;
75289;SDS011;63883;48.996;20.804;2023-09-30T12:45:16;11.82;;;8.18;;
75289;SDS011;63883;48.996;20.804;2023-09-30T12:47:43;10.52;;;8.32;;
75289;SDS011;63883;48.996;20.804;2023-09-30T12:50:10;13.23;;;8.20;;
75289;SDS011;63883;48.996;20.804;2023-09-30T12:52:35;13.15;;;8.15;;
75289;SDS011;63883;48.996;20.804;2023-09-30T12:55:02;11.25;;;8.00;;
75289;SDS011;63883;48.996;20.804;2023-09-30T12:57:27;10.57;;;7.97;;
75289;SDS011;63883;48.996;20.804;2023-09-30T12:59:53;10.35;;;7.70;;
75289;SDS011;63883;48.996;20.804;2023-09-30T13:02:19;11.80;;;8.73;;
75289;SDS011;63883;48.996;20.804;2023-09-30T13:04:46;11.07;;;8.77;;
75289;SDS011;63883;48.996;20.804;2023-09-30T13:07:12;12.55;;;9.10;;
75289;SDS011;63883;48.996;20.804;2023-09-30T13:09:38;12.52;;;9.05;;
75289;SDS011;63883;48.996;20.804;2023-09-30T13:12:04;11.10;;;8.40;;
75289;SDS011;63883;48.996;20.804;2023-09-30T13:14:31;11.23;;;8.40;;
75289;SDS011;63883;48.996;20.804;2023-09-30T13:16:56;9.77;;;8.02;;
75289;SDS011;63883;48.996;20.804;2023-09-30T13:19:22;11.40;;;8.48;;
75289;SDS011;63883;48.996;20.804;2023-09-30T13:21:49;10.02;;;8.00;;
75289;SDS011;63883;48.996;20.804;2023-09-30T13:24:16;11.95;;;8.15;;
75289;SDS011;63883;48.996;20.804;2023-09-30T13:26:41;12.30;;;7.75;;
75289;SDS011;63883;48.996;20.804;2023-09-30T13:29:07;11.20;;;8.15;;
75289;SDS011;63883;48.996;20.804;2023-09-30T13:34:04;10.68;;;7.50;;
75289;SDS011;63883;48.996;20.804;2023-09-30T13:36:30;11.68;;;7.63;;
75289;SDS011;63883;48.996;20.804;2023-09-30T13:38:57;11.35;;;8.10;;
75289;SDS011;63883;48.996;20.804;2023-09-30T13:41:22;9.23;;;7.75;;
75289;SDS011;63883;48.996;20.804;2023-09-30T13:43:48;9.88;;;7.85;;
75289;SDS011;63883;48.996;20.804;2023-09-30T13:46:14;11.25;;;8.38;;
75289;SDS011;63883;48.996;20.804;2023-09-30T13:48:41;13.05;;;8.07;;
75289;SDS011;63883;48.996;20.804;2023-09-30T13:51:10;15.00;;;9.00;;
75289;SDS011;63883;48.996;20.804;2023-09-30T13:53:36;10.80;;;8.27;;
75289;SDS011;63883;48.996;20.804;2023-09-30T13:56:02;16.25;;;8.77;;
75289;SDS011;63883;48.996;20.804;2023-09-30T13:58:31;15.18;;;8.77;;
75289;SDS011;63883;48.996;20.804;2023-09-30T14:00:57;15.32;;;8.93;;
75289;SDS011;63883;48.996;20.804;2023-09-30T14:03:23;12.43;;;8.63;;
75289;SDS011;63883;48.996;20.804;2023-09-30T14:05:51;11.40;;;8.65;;
75289;SDS011;63883;48.996;20.804;2023-09-30T14:08:18;13.38;;;9.20;;
75289;SDS011;63883;48.996;20.804;2023-09-30T14:10:44;12.95;;;9.05;;
75289;SDS011;63883;48.996;20.804;2023-09-30T14:13:10;14.25;;;9.73;;
75289;SDS011;63883;48.996;20.804;2023-09-30T14:15:36;12.30;;;9.35;;
75289;SDS011;63883;48.996;20.804;2023-09-30T14:18:03;11.77;;;9.43;;
75289;SDS011;63883;48.996;20.804;2023-09-30T14:20:29;11.80;;;9.00;;
75289;SDS011;63883;48.996;20.804;2023-09-30T14:22:55;12.93;;;9.20;;
75289;SDS011;63883;48.996;20.804;2023-09-30T14:25:21;12.23;;;9.23;;
75289;SDS011;63883;48.996;20.804;2023-09-30T14:27:47;13.77;;;9.68;;
75289;SDS011;63883;48.996;20.804;2023-09-30T14:30:14;14.50;;;9.70;;
75289;SDS011;63883;48.996;20.804;2023-09-30T14:32:41;18.10;;;11.10;;
75289;SDS011;63883;48.996;20.804;2023-09-30T14:35:07;18.88;;;11.30;;
75289;SDS011;63883;48.996;20.804;2023-09-30T14:37:35;16.52;;;10.40;;
75289;SDS011;63883;48.996;20.804;2023-09-30T14:40:01;11.90;;;9.15;;
75289;SDS011;63883;48.996;20.804;2023-09-30T14:42:30;13.00;;;9.45;;
75289;SDS011;63883;48.996;20.804;2023-09-30T14:44:57;13.68;;;9.52;;
75289;SDS011;63883;48.996;20.804;2023-09-30T14:47:23;14.95;;;9.35;;
75289;SDS011;63883;48.996;20.804;2023-09-30T14:49:48;11.82;;;9.45;;